createdAt,value
2022-12-04T00:00:25.438Z,82.40
2022-12-04T00:02:52.116Z,82.06
2022-12-04T00:05:18.710Z,82.46
2022-12-04T00:07:45.548Z,82.43
2022-12-04T00:10:12.169Z,82.54
2022-12-04T00:12:38.909Z,82.28
2022-12-04T00:17:53.807Z,82.42
2022-12-04T00:20:20.326Z,82.75
2022-12-04T00:22:50.153Z,82.70
2022-12-04T00:25:17.320Z,82.89
2022-12-04T00:27:43.844Z,82.23
2022-12-04T00:30:11.031Z,82.72
2022-12-04T00:32:37.646Z,82.74
2022-12-04T00:35:07.258Z,82.86
2022-12-04T00:37:33.757Z,82.71
2022-12-04T00:40:00.438Z,82.45
2022-12-04T00:42:28.276Z,82.50
2022-12-04T00:44:55.236Z,82.90
2022-12-04T00:47:21.919Z,82.63
2022-12-04T00:49:48.738Z,82.48
2022-12-04T00:52:17.778Z,82.45
2022-12-04T00:54:44.362Z,82.75
2022-12-04T01:01:39.993Z,82.68
2022-12-04T01:04:06.553Z,82.75
2022-12-04T01:06:38.783Z,82.77
2022-12-04T01:09:06.590Z,82.70
2022-12-04T01:11:33.680Z,82.80
2022-12-04T01:14:04.900Z,82.86
2022-12-04T01:16:34.903Z,82.52
2022-12-04T01:19:02.415Z,83.05
2022-12-04T01:24:10.206Z,83.05
2022-12-04T01:26:36.919Z,82.91
2022-12-04T01:29:03.854Z,82.58
2022-12-04T01:31:37.347Z,82.74
2022-12-04T01:34:04.036Z,82.97
2022-12-04T01:36:30.816Z,82.89
2022-12-04T01:38:57.497Z,82.95
2022-12-04T01:41:26.802Z,83.24
2022-12-04T01:44:26.182Z,83.02
2022-12-04T01:46:57.785Z,83.32
2022-12-04T01:49:36.094Z,83.16
2022-12-04T01:52:06.677Z,83.23
2022-12-04T01:54:40.985Z,83.10
2022-12-04T01:57:16.140Z,83.15
2022-12-04T01:59:47.907Z,82.97
2022-12-04T02:02:19.276Z,83.06
2022-12-04T02:04:48.252Z,83.43
2022-12-04T02:07:15.109Z,83.15
2022-12-04T02:09:42.762Z,83.23
2022-12-04T02:12:28.493Z,83.30
2022-12-04T02:15:23.941Z,82.98
2022-12-04T02:18:04.310Z,83.14
2022-12-04T02:20:57.386Z,83.00
2022-12-04T02:24:15.095Z,83.13
2022-12-04T02:26:48.047Z,83.12
2022-12-04T02:29:37.455Z,82.79
2022-12-04T02:32:17.572Z,83.15
2022-12-04T02:34:47.228Z,82.81
2022-12-04T02:37:29.948Z,82.85
2022-12-04T02:40:07.706Z,82.50
2022-12-04T02:42:45.815Z,82.64
2022-12-04T02:45:17.360Z,82.70
2022-12-04T02:47:46.269Z,82.80
2022-12-04T02:50:15.721Z,82.84
2022-12-04T02:52:50.570Z,82.73
2022-12-04T02:55:30.035Z,82.88
2022-12-04T02:58:02.363Z,82.94
2022-12-04T03:00:30.444Z,82.86
2022-12-04T03:03:02.675Z,82.86
2022-12-04T03:05:53.795Z,82.85
2022-12-04T03:08:28.106Z,82.62
2022-12-04T03:11:04.106Z,82.88
2022-12-04T03:13:41.931Z,82.80
2022-12-04T03:16:12.612Z,82.53
2022-12-04T03:18:46.939Z,82.76
2022-12-04T03:21:21.953Z,82.61
2022-12-04T03:24:01.937Z,82.80
2022-12-04T03:26:45.611Z,82.62
2022-12-04T03:29:19.204Z,82.75
2022-12-04T03:32:00.945Z,82.84
2022-12-04T03:34:38.579Z,82.72
2022-12-04T03:37:15.549Z,82.67
2022-12-04T03:39:53.474Z,82.78
2022-12-04T03:42:28.243Z,82.53
2022-12-04T03:47:45.885Z,82.74
2022-12-04T03:50:37.565Z,82.79
2022-12-04T03:53:16.831Z,82.93
2022-12-04T03:56:06.024Z,82.91
2022-12-04T03:58:38.807Z,82.99
2022-12-04T04:01:10.119Z,82.60
2022-12-04T04:03:48.305Z,82.76
2022-12-04T04:06:24.454Z,82.36
2022-12-04T04:08:54.916Z,82.45
2022-12-04T04:11:47.642Z,82.39
2022-12-04T04:14:45.429Z,82.47
2022-12-04T04:17:38.787Z,82.38
2022-12-04T04:21:05.769Z,82.02
2022-12-04T04:24:03.827Z,82.10
2022-12-04T04:26:35.825Z,82.16
2022-12-04T04:29:03.028Z,82.15
2022-12-04T04:31:43.945Z,81.97
2022-12-04T04:34:28.844Z,82.31
2022-12-04T04:37:10.696Z,82.25
2022-12-04T04:39:45.540Z,82.26
2022-12-04T04:42:36.213Z,82.42
2022-12-04T04:45:14.289Z,82.24
2022-12-04T04:47:53.575Z,82.28
2022-12-04T04:50:21.950Z,82.41
2022-12-04T04:52:57.928Z,82.20
2022-12-04T04:55:24.961Z,82.21
2022-12-04T04:57:51.908Z,82.63
2022-12-04T05:00:27.080Z,82.40
2022-12-04T05:02:57.871Z,82.48
2022-12-04T05:05:25.080Z,82.40
2022-12-04T05:07:51.907Z,82.25
2022-12-04T05:10:21.815Z,82.45
2022-12-04T05:12:48.620Z,82.25
2022-12-04T05:15:15.499Z,82.57
2022-12-04T05:17:45.530Z,82.61
2022-12-04T05:20:12.368Z,82.76
2022-12-04T05:22:39.115Z,82.99
2022-12-04T05:25:06.689Z,82.92
2022-12-04T05:27:54.126Z,83.01
2022-12-04T05:30:21.171Z,82.71
2022-12-04T05:32:47.904Z,82.76
2022-12-04T05:35:17.604Z,82.62
2022-12-04T05:37:45.662Z,82.32
2022-12-04T05:40:12.875Z,82.63
2022-12-04T05:42:39.885Z,82.59
2022-12-04T05:45:15.437Z,82.77
2022-12-04T05:47:47.040Z,82.87
2022-12-04T05:53:10.047Z,82.34
2022-12-04T05:55:38.129Z,82.59
2022-12-04T05:58:05.660Z,82.19
2022-12-04T06:00:55.575Z,82.37
2022-12-04T06:06:04.737Z,82.31
2022-12-04T06:08:32.424Z,82.12
2022-12-04T06:11:05.369Z,81.64
2022-12-04T06:13:35.078Z,81.57
2022-12-04T06:16:09.580Z,81.82
2022-12-04T06:18:36.774Z,81.51
2022-12-04T06:21:03.948Z,81.54
2022-12-04T06:23:34.558Z,81.45
2022-12-04T06:26:08.265Z,81.63
2022-12-04T06:29:05.512Z,81.71
2022-12-04T06:31:30.639Z,82.07
2022-12-04T06:33:58.890Z,82.19
2022-12-04T06:36:25.719Z,82.09
2022-12-04T06:38:56.454Z,82.10
2022-12-04T06:41:24.212Z,82.47
2022-12-04T06:43:52.464Z,82.58
2022-12-04T06:46:29.085Z,82.40
2022-12-04T06:49:06.132Z,83.18
2022-12-04T06:51:35.877Z,82.66
2022-12-04T06:54:03.585Z,82.80
2022-12-04T06:56:33.934Z,82.93
2022-12-04T06:59:03.005Z,82.82
2022-12-04T07:01:31.664Z,82.80
2022-12-04T07:04:01.153Z,83.05
2022-12-04T07:06:34.093Z,82.78
2022-12-04T07:09:12.030Z,82.61
2022-12-04T07:11:43.077Z,82.51
2022-12-04T07:14:10.638Z,82.37
2022-12-04T07:16:41.514Z,82.94
2022-12-04T07:19:10.455Z,82.73
2022-12-04T07:21:37.916Z,82.83
2022-12-04T07:24:05.050Z,82.63
2022-12-04T07:26:31.915Z,83.02
2022-12-04T07:29:00.409Z,82.77
2022-12-04T07:33:39.637Z,82.84
2022-12-04T07:42:03.923Z,83.30
2022-12-04T07:44:47.222Z,83.43
2022-12-04T07:47:17.691Z,83.10
2022-12-04T07:49:51.527Z,83.21
2022-12-04T07:55:00.757Z,83.01
2022-12-04T08:00:12.627Z,83.66
2022-12-04T08:02:45.411Z,83.47
2022-12-04T08:05:26.210Z,83.68
2022-12-04T08:07:57.194Z,83.69
2022-12-04T08:10:31.484Z,83.81
2022-12-04T08:15:44.579Z,83.52
2022-12-04T08:18:34.239Z,83.48
2022-12-04T08:24:00.270Z,83.41
2022-12-04T08:26:33.555Z,83.72
2022-12-04T08:29:11.322Z,83.70
2022-12-04T08:34:21.516Z,83.82
2022-12-04T08:36:53.150Z,83.62
2022-12-04T08:39:21.207Z,83.62
2022-12-04T08:41:52.355Z,83.48
2022-12-04T08:44:22.892Z,83.75
2022-12-04T08:46:49.799Z,83.64
2022-12-04T08:49:19.868Z,83.84
2022-12-04T08:51:51.187Z,83.77
2022-12-04T08:54:25.699Z,84.06
2022-12-04T08:57:05.448Z,83.91
2022-12-04T08:59:33.359Z,83.82
2022-12-04T09:02:07.005Z,83.59
2022-12-04T09:04:50.045Z,83.92
2022-12-04T09:10:16.090Z,84.14
2022-12-04T09:12:46.072Z,83.57
2022-12-04T09:15:18.614Z,83.76
2022-12-04T09:17:51.134Z,83.56
2022-12-04T09:20:19.539Z,83.71
2022-12-04T09:23:03.494Z,83.25
2022-12-04T09:25:33.024Z,83.21
2022-12-04T09:28:01.527Z,83.36
2022-12-04T09:30:30.971Z,83.26
2022-12-04T09:32:59.242Z,83.34
2022-12-04T09:35:31.201Z,83.59
2022-12-04T09:38:05.436Z,83.80
2022-12-04T09:40:43.797Z,83.71
2022-12-04T09:43:39.738Z,83.81
2022-12-04T09:46:16.401Z,83.68
2022-12-04T09:48:48.910Z,83.33
2022-12-04T09:51:32.672Z,83.23
2022-12-04T09:55:07.014Z,83.32
2022-12-04T09:57:48.055Z,83.37
2022-12-04T10:00:17.796Z,83.45
2022-12-04T10:03:03.908Z,83.31
2022-12-04T10:05:50.761Z,83.76
2022-12-04T10:08:30.681Z,83.28
2022-12-04T10:11:02.712Z,83.23
2022-12-04T10:13:44.612Z,83.48
2022-12-04T10:16:41.276Z,83.65
2022-12-04T10:19:43.242Z,83.36
2022-12-04T10:22:39.363Z,83.59
2022-12-04T10:25:15.250Z,83.34
2022-12-04T10:27:51.203Z,83.10
2022-12-04T10:30:17.897Z,82.63
2022-12-04T10:32:48.215Z,82.63
2022-12-04T10:35:32.368Z,82.31
2022-12-04T10:38:04.907Z,82.75
2022-12-04T10:40:47.489Z,82.50
2022-12-04T10:43:35.119Z,82.53
2022-12-04T10:46:01.855Z,82.47
2022-12-04T10:48:36.892Z,82.59
2022-12-04T10:51:03.630Z,82.72
2022-12-04T10:53:34.829Z,82.75
2022-12-04T10:56:14.972Z,82.65
2022-12-04T10:58:42.009Z,82.47
2022-12-04T11:01:12.838Z,82.55
2022-12-04T11:03:39.861Z,83.13
2022-12-04T11:06:09.583Z,83.03
2022-12-04T11:08:41.405Z,82.91
2022-12-04T11:11:13.862Z,83.26
2022-12-04T11:13:41.531Z,82.88
2022-12-04T11:16:08.970Z,83.05
2022-12-04T11:18:48.191Z,82.91
2022-12-04T11:21:18.380Z,82.97
2022-12-04T11:23:50.505Z,82.73
2022-12-04T11:26:31.273Z,82.67
2022-12-04T11:29:01.332Z,82.83
2022-12-04T11:31:29.813Z,82.70
2022-12-04T11:34:08.745Z,82.65
2022-12-04T11:36:52.672Z,82.35
2022-12-04T11:39:27.974Z,82.64
2022-12-04T11:42:16.598Z,82.60
2022-12-04T11:44:52.795Z,82.69
2022-12-04T11:47:21.056Z,82.72
2022-12-04T11:50:04.071Z,82.67
2022-12-04T11:52:42.141Z,82.73
2022-12-04T11:55:08.730Z,82.74
2022-12-04T11:57:54.571Z,82.63
2022-12-04T12:00:23.355Z,82.85
2022-12-04T12:03:07.553Z,82.89
2022-12-04T12:06:03.184Z,82.56
2022-12-04T12:08:35.719Z,82.58
2022-12-04T12:11:32.258Z,82.20
2022-12-04T12:14:27.949Z,82.10
2022-12-04T12:17:03.582Z,82.21
2022-12-04T12:19:58.014Z,81.84
2022-12-04T12:22:31.103Z,82.02
2022-12-04T12:25:19.590Z,82.11
2022-12-04T12:28:13.296Z,82.58
2022-12-04T12:30:44.892Z,82.65
2022-12-04T12:33:17.340Z,82.86
2022-12-04T12:36:05.922Z,83.09
2022-12-04T12:38:52.287Z,82.55
2022-12-04T12:41:26.051Z,83.07
2022-12-04T12:44:04.859Z,83.02
2022-12-04T12:46:37.355Z,82.63
2022-12-04T12:49:20.507Z,82.93
2022-12-04T12:52:01.223Z,82.97
2022-12-04T12:54:30.688Z,82.44
2022-12-04T12:57:05.989Z,82.11
2022-12-04T12:59:33.209Z,82.54
2022-12-04T13:02:22.687Z,82.34
2022-12-04T13:04:52.894Z,82.87
2022-12-04T13:07:29.380Z,82.71
2022-12-04T13:10:13.154Z,82.49
2022-12-04T13:12:46.614Z,83.32
2022-12-04T13:15:15.406Z,82.53
2022-12-04T13:17:43.466Z,82.55
2022-12-04T13:20:20.173Z,83.17
2022-12-04T13:22:56.015Z,82.90
2022-12-04T13:25:54.603Z,82.96
2022-12-04T13:28:24.013Z,83.31
2022-12-04T13:30:56.377Z,82.55
2022-12-04T13:33:39.500Z,82.58
2022-12-04T13:36:43.176Z,82.35
2022-12-04T13:39:38.006Z,82.19
2022-12-04T13:42:18.709Z,81.98
2022-12-04T13:44:54.658Z,82.18
2022-12-04T13:47:33.652Z,82.46
2022-12-04T13:50:18.726Z,82.80
2022-12-04T13:52:47.623Z,82.23
2022-12-04T13:55:38.752Z,82.67
2022-12-04T13:58:11.107Z,82.64
2022-12-04T14:00:42.588Z,82.56
2022-12-04T14:03:59.507Z,82.39
2022-12-04T14:06:33.042Z,82.32
2022-12-04T14:09:05.728Z,82.58
2022-12-04T14:11:45.976Z,82.68
2022-12-04T14:14:24.615Z,82.56
2022-12-04T14:16:52.153Z,82.43
2022-12-04T14:19:32.121Z,82.40
2022-12-04T14:21:58.993Z,82.23
2022-12-04T14:24:25.497Z,82.44
2022-12-04T14:30:04.660Z,82.44
2022-12-04T14:32:36.715Z,82.50
2022-12-04T14:35:03.728Z,82.64
2022-12-04T14:37:36.077Z,82.74
2022-12-04T14:40:07.344Z,82.80
2022-12-04T14:42:40.016Z,82.64
2022-12-04T14:45:31.395Z,82.73
2022-12-04T14:48:09.941Z,82.74
2022-12-04T14:50:56.358Z,82.49
2022-12-04T14:53:36.026Z,82.85
2022-12-04T14:56:26.302Z,82.89
2022-12-04T14:58:55.996Z,82.97
2022-12-04T15:01:34.031Z,83.34
2022-12-04T15:04:24.332Z,83.21
2022-12-04T15:06:56.795Z,83.17
2022-12-04T15:09:47.873Z,82.95
2022-12-04T15:12:39.618Z,82.70
2022-12-04T15:18:16.492Z,82.81
2022-12-04T15:20:57.546Z,83.21
2022-12-04T15:23:31.011Z,83.54
2022-12-04T15:26:00.847Z,83.24
2022-12-04T15:28:57.223Z,83.48
2022-12-04T15:31:35.266Z,83.44
2022-12-04T15:34:07.856Z,83.01
2022-12-04T15:36:44.496Z,83.05
2022-12-04T15:42:34.985Z,83.18
2022-12-04T15:47:54.999Z,83.38
2022-12-04T15:53:26.061Z,83.69
2022-12-04T15:55:55.293Z,83.60
2022-12-04T16:01:10.563Z,83.87
2022-12-04T16:03:48.808Z,83.60
2022-12-04T16:06:18.492Z,83.57
2022-12-04T16:11:29.852Z,83.62
2022-12-04T16:14:08.448Z,83.85
2022-12-04T16:16:43.902Z,83.81
2022-12-04T16:19:33.041Z,83.84
2022-12-04T16:24:42.844Z,84.31
2022-12-04T16:27:22.297Z,84.48
2022-12-04T16:29:50.142Z,84.55
2022-12-04T16:35:00.973Z,85.02
2022-12-04T16:40:14.444Z,85.08
2022-12-04T16:45:29.472Z,85.73
2022-12-04T16:47:57.981Z,85.89
2022-12-04T16:50:25.865Z,86.30
2022-12-04T16:52:52.688Z,86.86
2022-12-04T16:55:31.159Z,86.72
2022-12-04T16:57:57.625Z,87.04
2022-12-04T17:00:25.482Z,87.10
2022-12-04T17:02:52.250Z,87.34
2022-12-04T17:05:28.696Z,87.42
2022-12-04T17:07:56.138Z,87.10
2022-12-04T17:10:24.477Z,87.33
2022-12-04T17:12:55.138Z,86.94
2022-12-04T17:15:21.926Z,86.94
2022-12-04T17:17:48.611Z,86.80
2022-12-04T17:20:17.480Z,86.68
2022-12-04T17:22:44.019Z,86.88
2022-12-04T17:25:11.356Z,86.92
2022-12-04T17:27:38.517Z,87.02
2022-12-04T17:30:06.335Z,87.09
2022-12-04T17:32:34.898Z,86.99
2022-12-04T17:35:01.929Z,87.09
2022-12-04T17:37:28.505Z,86.97
2022-12-04T17:39:55.103Z,86.80
2022-12-04T17:42:21.649Z,87.19
2022-12-04T17:44:48.175Z,87.12
2022-12-04T17:47:14.823Z,87.08
2022-12-04T17:49:41.607Z,86.97
2022-12-04T17:52:08.075Z,87.06
2022-12-04T17:54:35.046Z,87.14
2022-12-04T17:57:01.783Z,87.06
2022-12-04T17:59:28.524Z,86.97
2022-12-04T18:01:55.147Z,86.95
2022-12-04T18:04:21.668Z,87.18
2022-12-04T18:06:48.322Z,87.20
2022-12-04T18:09:17.089Z,87.11
2022-12-04T18:11:46.476Z,86.94
2022-12-04T18:14:19.111Z,87.05
2022-12-04T18:16:51.172Z,87.12
2022-12-04T18:19:17.650Z,86.76
2022-12-04T18:21:44.519Z,86.79
2022-12-04T18:24:11.214Z,87.09
2022-12-04T18:26:43.489Z,86.79
2022-12-04T18:29:14.424Z,87.13
2022-12-04T18:31:41.226Z,87.52
2022-12-04T18:34:08.414Z,87.13
2022-12-04T18:36:35.596Z,87.26
2022-12-04T18:39:05.390Z,87.27
2022-12-04T18:41:32.230Z,87.11
2022-12-04T18:43:58.767Z,87.37
2022-12-04T18:46:25.592Z,87.43
2022-12-04T18:48:58.488Z,87.27
2022-12-04T18:51:29.767Z,87.08
2022-12-04T18:58:40.334Z,86.74
2022-12-04T19:01:11.684Z,86.82
2022-12-04T19:03:38.363Z,87.11
2022-12-04T19:06:05.083Z,87.35
2022-12-04T19:08:34.299Z,87.32
2022-12-04T19:24:37.985Z,87.27
2022-12-04T19:43:15.584Z,87.21
2022-12-04T19:45:49.316Z,87.18
2022-12-04T19:50:56.433Z,86.98
2022-12-04T19:56:09.399Z,86.97
2022-12-04T20:01:18.867Z,86.69
2022-12-04T20:06:28.223Z,86.96
2022-12-04T20:09:07.898Z,87.02
2022-12-04T20:11:35.694Z,86.71
2022-12-04T20:14:03.760Z,86.84
2022-12-04T20:16:32.833Z,86.81
2022-12-04T20:19:01.311Z,86.95
2022-12-04T20:21:30.648Z,87.21
2022-12-04T20:24:00.187Z,86.92
2022-12-04T20:26:29.868Z,87.12
2022-12-04T20:28:58.293Z,86.88
2022-12-04T20:31:28.334Z,86.83
2022-12-04T20:36:38.347Z,86.43
2022-12-04T20:41:46.556Z,86.35
2022-12-04T20:46:58.080Z,86.93
2022-12-04T20:49:24.549Z,86.97
2022-12-04T20:54:37.883Z,86.93
2022-12-04T20:57:07.604Z,86.88
2022-12-04T20:59:34.108Z,86.95
2022-12-04T21:02:00.719Z,86.86
2022-12-04T21:07:07.889Z,87.30
2022-12-04T21:15:32.851Z,87.00
2022-12-04T21:18:01.253Z,87.21
2022-12-04T21:20:27.724Z,87.14
2022-12-04T21:22:54.414Z,87.10
2022-12-04T21:25:20.945Z,87.35
2022-12-04T21:27:47.467Z,88.09
2022-12-04T21:30:14.247Z,88.72
2022-12-04T21:32:40.744Z,89.02
2022-12-04T21:35:07.757Z,89.38
2022-12-04T21:37:34.616Z,89.23
2022-12-04T21:40:01.346Z,89.69
2022-12-04T21:42:30.726Z,90.56
2022-12-04T21:44:58.565Z,90.39
2022-12-04T21:47:25.405Z,90.71
2022-12-04T21:49:51.895Z,90.80
2022-12-04T21:52:19.092Z,90.53
2022-12-04T21:54:49.475Z,90.70
2022-12-04T21:57:15.946Z,90.70
2022-12-04T21:59:42.412Z,90.59
2022-12-04T22:02:11.326Z,90.94
2022-12-04T22:07:18.185Z,90.43
2022-12-04T22:09:44.758Z,90.57
2022-12-04T22:12:33.287Z,90.66
2022-12-04T22:14:57.659Z,90.37
2022-12-04T22:17:24.092Z,90.48
2022-12-04T22:22:31.610Z,90.73
2022-12-04T22:27:38.413Z,91.09
2022-12-04T22:30:06.175Z,91.42
2022-12-04T22:32:32.713Z,91.68
2022-12-04T22:34:59.176Z,91.50
2022-12-04T22:37:25.765Z,91.45
2022-12-04T22:39:52.327Z,92.00
2022-12-04T22:42:18.812Z,92.06
2022-12-04T22:44:45.344Z,91.96
2022-12-04T22:47:11.881Z,92.35
2022-12-04T22:49:38.421Z,92.00
2022-12-04T22:52:04.947Z,92.02
2022-12-04T22:54:31.378Z,92.13
2022-12-04T22:56:57.839Z,92.42
2022-12-04T23:02:04.597Z,92.41
2022-12-04T23:07:11.598Z,92.41
2022-12-04T23:09:39.224Z,92.17
2022-12-04T23:14:46.903Z,92.01
2022-12-04T23:17:13.356Z,91.79
2022-12-04T23:19:39.834Z,92.06
2022-12-04T23:22:06.314Z,92.07
2022-12-04T23:24:33.401Z,92.01
2022-12-04T23:26:59.890Z,92.10
2022-12-04T23:29:51.366Z,91.90
2022-12-04T23:32:12.983Z,92.05
2022-12-04T23:34:39.966Z,91.89
2022-12-04T23:37:06.437Z,92.03
2022-12-04T23:39:33.635Z,92.17
2022-12-04T23:42:00.115Z,92.09
2022-12-04T23:44:26.665Z,92.17
2022-12-04T23:46:53.174Z,92.33
2022-12-04T23:49:19.705Z,92.26
2022-12-04T23:51:46.143Z,91.92
2022-12-04T23:54:12.619Z,91.92
2022-12-04T23:56:39.099Z,91.87
2022-12-04T23:59:05.590Z,91.93
